sensor_id;sensor_type;location;lat;lon;timestamp;temperature;humidity
16301;DHT22;8258;51.020;4.248;2023-04-06T00:00:14;8.20;99.90
16301;DHT22;8258;51.020;4.248;2023-04-06T00:02:43;8.20;99.90
16301;DHT22;8258;51.020;4.248;2023-04-06T00:05:10;8.20;99.90
16301;DHT22;8258;51.020;4.248;2023-04-06T00:07:37;8.30;99.90
16301;DHT22;8258;51.020;4.248;2023-04-06T00:10:05;8.30;99.90
16301;DHT22;8258;51.020;4.248;2023-04-06T00:12:32;8.20;99.90
16301;DHT22;8258;51.020;4.248;2023-04-06T00:14:59;8.30;99.90
16301;DHT22;8258;51.020;4.248;2023-04-06T00:17:27;8.20;99.90
16301;DHT22;8258;51.020;4.248;2023-04-06T00:19:55;8.10;99.90
16301;DHT22;8258;51.020;4.248;2023-04-06T00:22:22;8.20;99.90
16301;DHT22;8258;51.020;4.248;2023-04-06T00:24:49;8.10;99.90
16301;DHT22;8258;51.020;4.248;2023-04-06T00:27:16;8.10;99.90
16301;DHT22;8258;51.020;4.248;2023-04-06T00:29:43;8.10;99.90
16301;DHT22;8258;51.020;4.248;2023-04-06T00:32:11;8.00;99.90
16301;DHT22;8258;51.020;4.248;2023-04-06T00:34:37;8.00;99.90
16301;DHT22;8258;51.020;4.248;2023-04-06T00:37:06;8.10;99.90
16301;DHT22;8258;51.020;4.248;2023-04-06T00:39:33;8.10;99.90
16301;DHT22;8258;51.020;4.248;2023-04-06T00:42:01;8.10;99.90
16301;DHT22;8258;51.020;4.248;2023-04-06T00:44:34;8.10;99.90
16301;DHT22;8258;51.020;4.248;2023-04-06T00:47:01;8.00;99.90
16301;DHT22;8258;51.020;4.248;2023-04-06T00:49:28;8.00;99.90
16301;DHT22;8258;51.020;4.248;2023-04-06T00:51:55;8.00;99.90
16301;DHT22;8258;51.020;4.248;2023-04-06T00:54:23;8.00;99.90
16301;DHT22;8258;51.020;4.248;2023-04-06T00:56:50;8.00;99.90
16301;DHT22;8258;51.020;4.248;2023-04-06T00:59:17;8.00;99.90
16301;DHT22;8258;51.020;4.248;2023-04-06T01:01:45;8.00;99.90
16301;DHT22;8258;51.020;4.248;2023-04-06T01:04:11;8.00;99.90
16301;DHT22;8258;51.020;4.248;2023-04-06T01:06:38;8.00;99.90
16301;DHT22;8258;51.020;4.248;2023-04-06T01:09:06;8.00;99.90
16301;DHT22;8258;51.020;4.248;2023-04-06T01:11:35;7.90;99.90
16301;DHT22;8258;51.020;4.248;2023-04-06T01:14:03;7.90;99.90
16301;DHT22;8258;51.020;4.248;2023-04-06T01:16:30;7.90;99.90
16301;DHT22;8258;51.020;4.248;2023-04-06T01:18:57;7.80;99.90
16301;DHT22;8258;51.020;4.248;2023-04-06T01:21:24;7.70;99.90
16301;DHT22;8258;51.020;4.248;2023-04-06T01:23:53;7.60;99.90
16301;DHT22;8258;51.020;4.248;2023-04-06T01:26:20;7.60;99.90
16301;DHT22;8258;51.020;4.248;2023-04-06T01:28:47;7.60;99.90
16301;DHT22;8258;51.020;4.248;2023-04-06T01:31:14;7.50;99.90
16301;DHT22;8258;51.020;4.248;2023-04-06T01:33:41;7.50;99.90
16301;DHT22;8258;51.020;4.248;2023-04-06T01:36:08;7.50;99.90
16301;DHT22;8258;51.020;4.248;2023-04-06T01:38:35;7.50;99.90
16301;DHT22;8258;51.020;4.248;2023-04-06T01:41:03;7.50;99.90
16301;DHT22;8258;51.020;4.248;2023-04-06T01:43:30;7.40;99.90
16301;DHT22;8258;51.020;4.248;2023-04-06T01:45:57;7.40;99.90
16301;DHT22;8258;51.020;4.248;2023-04-06T01:48:26;7.30;99.90
16301;DHT22;8258;51.020;4.248;2023-04-06T01:50:53;7.30;99.90
16301;DHT22;8258;51.020;4.248;2023-04-06T01:53:20;7.20;99.90
16301;DHT22;8258;51.020;4.248;2023-04-06T01:55:47;7.20;99.90
16301;DHT22;8258;51.020;4.248;2023-04-06T01:58:16;7.20;99.90
16301;DHT22;8258;51.020;4.248;2023-04-06T02:00:43;7.20;99.90
16301;DHT22;8258;51.020;4.248;2023-04-06T02:03:09;7.20;99.90
16301;DHT22;8258;51.020;4.248;2023-04-06T02:05:36;7.20;99.90
16301;DHT22;8258;51.020;4.248;2023-04-06T02:08:04;7.20;99.90
16301;DHT22;8258;51.020;4.248;2023-04-06T02:10:31;7.20;99.90
16301;DHT22;8258;51.020;4.248;2023-04-06T02:12:58;7.20;99.90
16301;DHT22;8258;51.020;4.248;2023-04-06T02:15:27;7.20;99.90
16301;DHT22;8258;51.020;4.248;2023-04-06T02:17:54;7.20;99.90
16301;DHT22;8258;51.020;4.248;2023-04-06T02:20:21;7.20;99.90
16301;DHT22;8258;51.020;4.248;2023-04-06T02:22:48;7.10;99.90
16301;DHT22;8258;51.020;4.248;2023-04-06T02:25:15;7.20;99.90
16301;DHT22;8258;51.020;4.248;2023-04-06T02:27:42;7.20;99.90
16301;DHT22;8258;51.020;4.248;2023-04-06T02:30:10;7.10;99.90
16301;DHT22;8258;51.020;4.248;2023-04-06T02:32:38;7.10;99.90
16301;DHT22;8258;51.020;4.248;2023-04-06T02:35:06;7.10;99.90
16301;DHT22;8258;51.020;4.248;2023-04-06T02:37:33;7.00;99.90
16301;DHT22;8258;51.020;4.248;2023-04-06T02:40:00;7.00;99.90
16301;DHT22;8258;51.020;4.248;2023-04-06T02:42:27;7.00;99.90
16301;DHT22;8258;51.020;4.248;2023-04-06T02:44:54;7.00;99.90
16301;DHT22;8258;51.020;4.248;2023-04-06T02:47:20;7.00;99.90
16301;DHT22;8258;51.020;4.248;2023-04-06T02:49:49;7.00;99.90
16301;DHT22;8258;51.020;4.248;2023-04-06T02:52:16;7.00;99.90
16301;DHT22;8258;51.020;4.248;2023-04-06T02:54:43;7.00;99.90
16301;DHT22;8258;51.020;4.248;2023-04-06T02:57:10;6.90;99.90
16301;DHT22;8258;51.020;4.248;2023-04-06T02:59:37;6.90;99.90
16301;DHT22;8258;51.020;4.248;2023-04-06T03:02:04;6.90;99.90
16301;DHT22;8258;51.020;4.248;2023-04-06T03:04:31;6.90;99.90
16301;DHT22;8258;51.020;4.248;2023-04-06T03:07:00;6.90;99.90
16301;DHT22;8258;51.020;4.248;2023-04-06T03:09:27;6.90;99.90
16301;DHT22;8258;51.020;4.248;2023-04-06T03:11:54;6.80;99.90
16301;DHT22;8258;51.020;4.248;2023-04-06T03:14:21;6.70;99.90
16301;DHT22;8258;51.020;4.248;2023-04-06T03:16:48;6.70;99.90
16301;DHT22;8258;51.020;4.248;2023-04-06T03:19:15;6.70;99.90
16301;DHT22;8258;51.020;4.248;2023-04-06T03:21:42;6.70;99.90
16301;DHT22;8258;51.020;4.248;2023-04-06T03:24:11;6.70;99.90
16301;DHT22;8258;51.020;4.248;2023-04-06T03:26:39;6.70;99.90
16301;DHT22;8258;51.020;4.248;2023-04-06T03:29:06;6.70;99.90
16301;DHT22;8258;51.020;4.248;2023-04-06T03:31:33;6.70;99.90
16301;DHT22;8258;51.020;4.248;2023-04-06T03:34:00;6.80;99.90
16301;DHT22;8258;51.020;4.248;2023-04-06T03:36:27;6.80;99.90
16301;DHT22;8258;51.020;4.248;2023-04-06T03:38:54;6.80;99.90
16301;DHT22;8258;51.020;4.248;2023-04-06T03:41:22;6.80;99.90
16301;DHT22;8258;51.020;4.248;2023-04-06T03:43:49;6.90;99.90
16301;DHT22;8258;51.020;4.248;2023-04-06T03:46:16;6.80;99.90
16301;DHT22;8258;51.020;4.248;2023-04-06T03:48:43;6.80;99.90
16301;DHT22;8258;51.020;4.248;2023-04-06T03:51:10;6.80;99.90
16301;DHT22;8258;51.020;4.248;2023-04-06T03:53:37;6.90;99.90
16301;DHT22;8258;51.020;4.248;2023-04-06T03:56:05;6.90;99.90
16301;DHT22;8258;51.020;4.248;2023-04-06T03:58:33;6.90;99.90
16301;DHT22;8258;51.020;4.248;2023-04-06T04:01:00;6.90;99.90
16301;DHT22;8258;51.020;4.248;2023-04-06T04:03:27;6.90;99.90
16301;DHT22;8258;51.020;4.248;2023-04-06T04:05:54;6.90;99.90
16301;DHT22;8258;51.020;4.248;2023-04-06T04:08:21;6.90;99.90
16301;DHT22;8258;51.020;4.248;2023-04-06T04:10:48;6.90;99.90
16301;DHT22;8258;51.020;4.248;2023-04-06T04:13:15;6.90;99.90
16301;DHT22;8258;51.020;4.248;2023-04-06T04:15:44;7.00;99.90
16301;DHT22;8258;51.020;4.248;2023-04-06T04:18:13;7.00;99.90
16301;DHT22;8258;51.020;4.248;2023-04-06T04:20:39;7.10;99.90
16301;DHT22;8258;51.020;4.248;2023-04-06T04:23:06;7.10;99.90
16301;DHT22;8258;51.020;4.248;2023-04-06T04:25:33;7.00;99.90
16301;DHT22;8258;51.020;4.248;2023-04-06T04:28:00;7.00;99.90
16301;DHT22;8258;51.020;4.248;2023-04-06T04:30:27;7.00;99.90
16301;DHT22;8258;51.020;4.248;2023-04-06T04:32:56;7.10;99.90
16301;DHT22;8258;51.020;4.248;2023-04-06T04:35:23;7.00;99.90
16301;DHT22;8258;51.020;4.248;2023-04-06T04:37:50;7.10;99.90
16301;DHT22;8258;51.020;4.248;2023-04-06T04:40:17;7.10;99.90
16301;DHT22;8258;51.020;4.248;2023-04-06T04:42:44;7.10;99.90
16301;DHT22;8258;51.020;4.248;2023-04-06T04:45:11;7.20;99.90
16301;DHT22;8258;51.020;4.248;2023-04-06T04:47:38;7.20;99.90
16301;DHT22;8258;51.020;4.248;2023-04-06T04:50:08;7.20;99.90
16301;DHT22;8258;51.020;4.248;2023-04-06T04:52:35;7.20;99.90
16301;DHT22;8258;51.020;4.248;2023-04-06T04:55:02;7.20;99.90
16301;DHT22;8258;51.020;4.248;2023-04-06T04:57:29;7.20;99.90
16301;DHT22;8258;51.020;4.248;2023-04-06T04:59:56;7.20;99.90
16301;DHT22;8258;51.020;4.248;2023-04-06T05:02:23;7.30;99.90
16301;DHT22;8258;51.020;4.248;2023-04-06T05:04:50;7.30;99.90
16301;DHT22;8258;51.020;4.248;2023-04-06T05:07:19;7.30;99.90
16301;DHT22;8258;51.020;4.248;2023-04-06T05:09:46;7.30;99.90
16301;DHT22;8258;51.020;4.248;2023-04-06T05:12:13;7.40;99.90
16301;DHT22;8258;51.020;4.248;2023-04-06T05:14:40;7.40;99.90
16301;DHT22;8258;51.020;4.248;2023-04-06T05:17:08;7.40;99.90
16301;DHT22;8258;51.020;4.248;2023-04-06T05:19:35;7.40;99.90
16301;DHT22;8258;51.020;4.248;2023-04-06T05:22:02;7.40;99.90
16301;DHT22;8258;51.020;4.248;2023-04-06T05:24:30;7.40;99.90
16301;DHT22;8258;51.020;4.248;2023-04-06T05:26:57;7.50;99.90
16301;DHT22;8258;51.020;4.248;2023-04-06T05:29:25;7.50;99.90
16301;DHT22;8258;51.020;4.248;2023-04-06T05:31:52;7.40;99.90
16301;DHT22;8258;51.020;4.248;2023-04-06T05:34:20;7.40;99.90
16301;DHT22;8258;51.020;4.248;2023-04-06T05:36:47;7.50;99.90
16301;DHT22;8258;51.020;4.248;2023-04-06T05:39:13;7.50;99.90
16301;DHT22;8258;51.020;4.248;2023-04-06T05:41:42;7.50;99.90
16301;DHT22;8258;51.020;4.248;2023-04-06T05:44:09;7.50;99.90
16301;DHT22;8258;51.020;4.248;2023-04-06T05:46:36;7.60;99.90
16301;DHT22;8258;51.020;4.248;2023-04-06T05:49:03;7.70;99.90
16301;DHT22;8258;51.020;4.248;2023-04-06T05:51:30;7.80;99.90
16301;DHT22;8258;51.020;4.248;2023-04-06T05:53:57;7.80;99.90
16301;DHT22;8258;51.020;4.248;2023-04-06T05:56:25;7.80;99.90
16301;DHT22;8258;51.020;4.248;2023-04-06T05:58:53;7.80;99.90
16301;DHT22;8258;51.020;4.248;2023-04-06T06:01:20;7.80;99.90
16301;DHT22;8258;51.020;4.248;2023-04-06T06:03:47;7.80;99.90
16301;DHT22;8258;51.020;4.248;2023-04-06T06:06:14;7.80;99.90
16301;DHT22;8258;51.020;4.248;2023-04-06T06:08:41;7.70;99.90
16301;DHT22;8258;51.020;4.248;2023-04-06T06:11:08;7.70;99.90
16301;DHT22;8258;51.020;4.248;2023-04-06T06:13:35;7.60;99.90
16301;DHT22;8258;51.020;4.248;2023-04-06T06:16:04;7.60;99.90
16301;DHT22;8258;51.020;4.248;2023-04-06T06:18:31;7.60;99.90
16301;DHT22;8258;51.020;4.248;2023-04-06T06:20:58;7.60;99.90
16301;DHT22;8258;51.020;4.248;2023-04-06T06:23:25;7.60;99.90
16301;DHT22;8258;51.020;4.248;2023-04-06T06:25:52;7.50;99.90
16301;DHT22;8258;51.020;4.248;2023-04-06T06:28:22;7.50;99.90
16301;DHT22;8258;51.020;4.248;2023-04-06T06:30:50;7.50;99.90
16301;DHT22;8258;51.020;4.248;2023-04-06T06:33:18;7.50;99.90
16301;DHT22;8258;51.020;4.248;2023-04-06T06:35:46;7.40;99.90
16301;DHT22;8258;51.020;4.248;2023-04-06T06:38:13;7.30;99.90
16301;DHT22;8258;51.020;4.248;2023-04-06T06:40:40;7.30;99.90
16301;DHT22;8258;51.020;4.248;2023-04-06T06:43:07;7.30;99.90
16301;DHT22;8258;51.020;4.248;2023-04-06T06:45:35;7.30;99.90
16301;DHT22;8258;51.020;4.248;2023-04-06T06:48:02;7.30;99.90
16301;DHT22;8258;51.020;4.248;2023-04-06T06:50:30;7.30;99.90
16301;DHT22;8258;51.020;4.248;2023-04-06T06:52:57;7.30;99.90
16301;DHT22;8258;51.020;4.248;2023-04-06T06:55:24;7.40;99.90
16301;DHT22;8258;51.020;4.248;2023-04-06T06:57:52;7.30;99.90
16301;DHT22;8258;51.020;4.248;2023-04-06T07:00:19;7.20;99.90
16301;DHT22;8258;51.020;4.248;2023-04-06T07:02:47;7.30;99.90
16301;DHT22;8258;51.020;4.248;2023-04-06T07:05:16;7.30;99.90
16301;DHT22;8258;51.020;4.248;2023-04-06T07:07:44;7.30;99.90
16301;DHT22;8258;51.020;4.248;2023-04-06T07:10:11;7.30;99.90
16301;DHT22;8258;51.020;4.248;2023-04-06T07:12:38;7.30;99.90
16301;DHT22;8258;51.020;4.248;2023-04-06T07:15:06;7.30;99.90
16301;DHT22;8258;51.020;4.248;2023-04-06T07:17:33;7.40;99.90
16301;DHT22;8258;51.020;4.248;2023-04-06T07:20:00;7.30;99.90
16301;DHT22;8258;51.020;4.248;2023-04-06T07:22:27;7.40;99.90
16301;DHT22;8258;51.020;4.248;2023-04-06T07:24:56;7.40;99.90
16301;DHT22;8258;51.020;4.248;2023-04-06T07:27:23;7.40;99.90
16301;DHT22;8258;51.020;4.248;2023-04-06T07:29:50;7.30;99.90
16301;DHT22;8258;51.020;4.248;2023-04-06T07:32:17;7.30;99.90
16301;DHT22;8258;51.020;4.248;2023-04-06T07:34:44;7.30;99.90
16301;DHT22;8258;51.020;4.248;2023-04-06T07:37:12;7.30;99.90
16301;DHT22;8258;51.020;4.248;2023-04-06T07:39:39;7.30;99.90
16301;DHT22;8258;51.020;4.248;2023-04-06T07:42:08;7.20;99.90
16301;DHT22;8258;51.020;4.248;2023-04-06T07:44:35;7.30;99.90
16301;DHT22;8258;51.020;4.248;2023-04-06T07:47:02;7.30;99.90
16301;DHT22;8258;51.020;4.248;2023-04-06T07:49:29;7.30;99.90
16301;DHT22;8258;51.020;4.248;2023-04-06T07:51:57;7.40;99.90
16301;DHT22;8258;51.020;4.248;2023-04-06T07:54:25;7.40;99.90
16301;DHT22;8258;51.020;4.248;2023-04-06T07:56:52;7.40;99.90
16301;DHT22;8258;51.020;4.248;2023-04-06T07:59:20;7.30;99.90
16301;DHT22;8258;51.020;4.248;2023-04-06T08:01:47;7.40;99.90
16301;DHT22;8258;51.020;4.248;2023-04-06T08:04:14;7.40;99.90
16301;DHT22;8258;51.020;4.248;2023-04-06T08:06:41;7.40;99.90
16301;DHT22;8258;51.020;4.248;2023-04-06T08:09:08;7.30;99.90
16301;DHT22;8258;51.020;4.248;2023-04-06T08:11:35;7.40;99.90
16301;DHT22;8258;51.020;4.248;2023-04-06T08:14:02;7.40;99.90
16301;DHT22;8258;51.020;4.248;2023-04-06T08:16:30;7.30;99.90
16301;DHT22;8258;51.020;4.248;2023-04-06T08:18:57;7.30;99.90
16301;DHT22;8258;51.020;4.248;2023-04-06T08:21:24;7.40;99.90
16301;DHT22;8258;51.020;4.248;2023-04-06T08:23:51;7.40;99.90
16301;DHT22;8258;51.020;4.248;2023-04-06T08:26:18;7.40;99.90
16301;DHT22;8258;51.020;4.248;2023-04-06T08:28:45;7.40;99.90
16301;DHT22;8258;51.020;4.248;2023-04-06T08:31:12;7.40;99.90
16301;DHT22;8258;51.020;4.248;2023-04-06T08:33:40;7.40;99.90
16301;DHT22;8258;51.020;4.248;2023-04-06T08:36:09;7.40;99.90
16301;DHT22;8258;51.020;4.248;2023-04-06T08:38:36;7.40;99.90
16301;DHT22;8258;51.020;4.248;2023-04-06T08:41:09;7.50;99.90
16301;DHT22;8258;51.020;4.248;2023-04-06T08:43:43;7.50;99.90
16301;DHT22;8258;51.020;4.248;2023-04-06T08:46:10;7.50;99.90
16301;DHT22;8258;51.020;4.248;2023-04-06T08:48:40;7.50;99.90
16301;DHT22;8258;51.020;4.248;2023-04-06T08:51:08;7.50;99.90
16301;DHT22;8258;51.020;4.248;2023-04-06T08:53:35;7.50;99.90
16301;DHT22;8258;51.020;4.248;2023-04-06T08:56:03;7.60;99.90
16301;DHT22;8258;51.020;4.248;2023-04-06T08:58:34;7.70;99.90
16301;DHT22;8258;51.020;4.248;2023-04-06T09:01:02;7.80;99.90
16301;DHT22;8258;51.020;4.248;2023-04-06T09:03:35;7.80;99.90
16301;DHT22;8258;51.020;4.248;2023-04-06T09:06:05;7.80;99.90
16301;DHT22;8258;51.020;4.248;2023-04-06T09:08:32;7.80;99.90
16301;DHT22;8258;51.020;4.248;2023-04-06T09:11:00;7.80;99.90
16301;DHT22;8258;51.020;4.248;2023-04-06T09:13:28;7.70;99.90
16301;DHT22;8258;51.020;4.248;2023-04-06T09:15:59;7.70;99.90
16301;DHT22;8258;51.020;4.248;2023-04-06T09:18:29;7.70;99.90
16301;DHT22;8258;51.020;4.248;2023-04-06T09:20:59;7.70;99.90
16301;DHT22;8258;51.020;4.248;2023-04-06T09:23:28;7.70;99.90
16301;DHT22;8258;51.020;4.248;2023-04-06T09:26:06;7.70;99.90
16301;DHT22;8258;51.020;4.248;2023-04-06T09:28:44;7.80;99.90
16301;DHT22;8258;51.020;4.248;2023-04-06T09:31:12;7.80;99.90
16301;DHT22;8258;51.020;4.248;2023-04-06T09:33:40;7.80;99.90
16301;DHT22;8258;51.020;4.248;2023-04-06T09:36:07;7.80;99.90
16301;DHT22;8258;51.020;4.248;2023-04-06T09:38:38;7.80;99.90
16301;DHT22;8258;51.020;4.248;2023-04-06T09:41:05;7.90;99.90
16301;DHT22;8258;51.020;4.248;2023-04-06T09:43:32;7.90;99.90
16301;DHT22;8258;51.020;4.248;2023-04-06T09:46:01;7.90;99.90
16301;DHT22;8258;51.020;4.248;2023-04-06T09:48:31;7.90;99.90
16301;DHT22;8258;51.020;4.248;2023-04-06T09:51:03;7.90;99.90
16301;DHT22;8258;51.020;4.248;2023-04-06T09:53:31;7.80;99.90
16301;DHT22;8258;51.020;4.248;2023-04-06T09:56:03;7.70;99.90
16301;DHT22;8258;51.020;4.248;2023-04-06T09:58:34;7.80;99.90
16301;DHT22;8258;51.020;4.248;2023-04-06T10:01:07;7.70;99.90
16301;DHT22;8258;51.020;4.248;2023-04-06T10:03:43;7.80;99.90
16301;DHT22;8258;51.020;4.248;2023-04-06T10:06:13;7.70;99.90
16301;DHT22;8258;51.020;4.248;2023-04-06T10:08:43;7.70;99.90
16301;DHT22;8258;51.020;4.248;2023-04-06T10:11:14;7.70;99.90
16301;DHT22;8258;51.020;4.248;2023-04-06T10:13:41;7.80;99.90
16301;DHT22;8258;51.020;4.248;2023-04-06T10:16:10;7.70;99.90
16301;DHT22;8258;51.020;4.248;2023-04-06T10:18:39;7.80;99.90
16301;DHT22;8258;51.020;4.248;2023-04-06T10:21:12;7.90;99.90
16301;DHT22;8258;51.020;4.248;2023-04-06T10:23:43;7.90;99.90
16301;DHT22;8258;51.020;4.248;2023-04-06T10:26:15;7.90;99.90
16301;DHT22;8258;51.020;4.248;2023-04-06T10:28:44;7.80;99.90
16301;DHT22;8258;51.020;4.248;2023-04-06T10:31:12;7.90;99.90
16301;DHT22;8258;51.020;4.248;2023-04-06T10:33:39;7.90;99.90
16301;DHT22;8258;51.020;4.248;2023-04-06T10:36:11;8.00;99.90
16301;DHT22;8258;51.020;4.248;2023-04-06T10:38:39;8.00;99.90
16301;DHT22;8258;51.020;4.248;2023-04-06T10:41:06;8.00;99.90
16301;DHT22;8258;51.020;4.248;2023-04-06T10:43:37;8.10;99.90
16301;DHT22;8258;51.020;4.248;2023-04-06T10:46:05;8.20;99.90
16301;DHT22;8258;51.020;4.248;2023-04-06T10:48:40;8.30;99.90
16301;DHT22;8258;51.020;4.248;2023-04-06T10:51:09;8.40;99.90
16301;DHT22;8258;51.020;4.248;2023-04-06T10:53:36;8.60;99.90
16301;DHT22;8258;51.020;4.248;2023-04-06T10:56:04;8.60;99.90
16301;DHT22;8258;51.020;4.248;2023-04-06T10:58:37;8.60;99.90
16301;DHT22;8258;51.020;4.248;2023-04-06T11:01:04;8.60;99.90
16301;DHT22;8258;51.020;4.248;2023-04-06T11:03:31;8.70;99.90
16301;DHT22;8258;51.020;4.248;2023-04-06T11:05:59;8.80;99.90
16301;DHT22;8258;51.020;4.248;2023-04-06T11:08:28;8.80;99.90
16301;DHT22;8258;51.020;4.248;2023-04-06T11:11:05;8.80;99.90
16301;DHT22;8258;51.020;4.248;2023-04-06T11:13:41;8.80;99.90
16301;DHT22;8258;51.020;4.248;2023-04-06T11:16:13;8.70;99.90
16301;DHT22;8258;51.020;4.248;2023-04-06T11:18:50;8.80;99.90
16301;DHT22;8258;51.020;4.248;2023-04-06T11:21:18;8.60;99.90
16301;DHT22;8258;51.020;4.248;2023-04-06T11:23:45;8.50;99.90
16301;DHT22;8258;51.020;4.248;2023-04-06T11:26:12;8.40;99.90
16301;DHT22;8258;51.020;4.248;2023-04-06T11:28:41;8.40;99.90
16301;DHT22;8258;51.020;4.248;2023-04-06T11:31:09;8.50;99.90
16301;DHT22;8258;51.020;4.248;2023-04-06T11:33:37;8.50;99.90
16301;DHT22;8258;51.020;4.248;2023-04-06T11:36:06;8.40;99.90
16301;DHT22;8258;51.020;4.248;2023-04-06T11:38:33;8.50;99.90
16301;DHT22;8258;51.020;4.248;2023-04-06T11:41:01;8.50;99.90
16301;DHT22;8258;51.020;4.248;2023-04-06T11:43:29;8.60;99.90
16301;DHT22;8258;51.020;4.248;2023-04-06T11:46:02;8.50;99.90
16301;DHT22;8258;51.020;4.248;2023-04-06T11:48:29;8.40;99.90
16301;DHT22;8258;51.020;4.248;2023-04-06T11:50:57;8.40;99.90
16301;DHT22;8258;51.020;4.248;2023-04-06T11:53:26;8.30;99.90
16301;DHT22;8258;51.020;4.248;2023-04-06T11:55:54;8.30;99.90
16301;DHT22;8258;51.020;4.248;2023-04-06T11:58:21;8.30;99.90
16301;DHT22;8258;51.020;4.248;2023-04-06T12:00:48;8.40;99.90
16301;DHT22;8258;51.020;4.248;2023-04-06T12:03:16;8.40;99.90
16301;DHT22;8258;51.020;4.248;2023-04-06T12:05:43;8.50;99.90
16301;DHT22;8258;51.020;4.248;2023-04-06T12:08:11;8.50;99.90
16301;DHT22;8258;51.020;4.248;2023-04-06T12:10:38;8.40;99.90
16301;DHT22;8258;51.020;4.248;2023-04-06T12:13:05;8.50;99.90
16301;DHT22;8258;51.020;4.248;2023-04-06T12:15:32;8.50;99.90
16301;DHT22;8258;51.020;4.248;2023-04-06T12:17:59;8.60;99.90
16301;DHT22;8258;51.020;4.248;2023-04-06T12:20:27;8.70;99.90
16301;DHT22;8258;51.020;4.248;2023-04-06T12:22:54;8.70;99.90
16301;DHT22;8258;51.020;4.248;2023-04-06T12:25:21;8.60;99.90
16301;DHT22;8258;51.020;4.248;2023-04-06T12:27:48;8.50;99.90
16301;DHT22;8258;51.020;4.248;2023-04-06T12:30:16;8.50;99.90
16301;DHT22;8258;51.020;4.248;2023-04-06T12:32:43;8.60;99.90
16301;DHT22;8258;51.020;4.248;2023-04-06T12:35:10;8.50;99.90
16301;DHT22;8258;51.020;4.248;2023-04-06T12:37:42;8.40;99.90
16301;DHT22;8258;51.020;4.248;2023-04-06T12:40:10;8.40;99.90
16301;DHT22;8258;51.020;4.248;2023-04-06T12:42:39;8.50;99.90
16301;DHT22;8258;51.020;4.248;2023-04-06T12:45:08;8.50;99.90
16301;DHT22;8258;51.020;4.248;2023-04-06T12:47:35;8.50;99.90
16301;DHT22;8258;51.020;4.248;2023-04-06T12:50:04;8.50;99.90
16301;DHT22;8258;51.020;4.248;2023-04-06T12:52:32;8.50;99.90
16301;DHT22;8258;51.020;4.248;2023-04-06T12:55:02;8.50;99.90
16301;DHT22;8258;51.020;4.248;2023-04-06T12:57:30;8.50;99.90
16301;DHT22;8258;51.020;4.248;2023-04-06T12:59:57;8.50;99.90
16301;DHT22;8258;51.020;4.248;2023-04-06T13:02:25;8.60;99.90
16301;DHT22;8258;51.020;4.248;2023-04-06T13:04:52;8.60;99.90
16301;DHT22;8258;51.020;4.248;2023-04-06T13:07:19;8.60;99.90
16301;DHT22;8258;51.020;4.248;2023-04-06T13:09:46;8.60;99.90
16301;DHT22;8258;51.020;4.248;2023-04-06T13:12:16;8.50;99.90
16301;DHT22;8258;51.020;4.248;2023-04-06T13:14:43;8.50;99.90
16301;DHT22;8258;51.020;4.248;2023-04-06T13:17:12;8.50;99.90
16301;DHT22;8258;51.020;4.248;2023-04-06T13:19:40;8.50;99.90
16301;DHT22;8258;51.020;4.248;2023-04-06T13:22:06;8.60;99.90
16301;DHT22;8258;51.020;4.248;2023-04-06T13:24:34;8.60;99.90
16301;DHT22;8258;51.020;4.248;2023-04-06T13:27:00;8.70;99.90
16301;DHT22;8258;51.020;4.248;2023-04-06T13:29:29;8.70;99.90
16301;DHT22;8258;51.020;4.248;2023-04-06T13:31:56;8.70;99.90
16301;DHT22;8258;51.020;4.248;2023-04-06T13:34:23;8.60;99.90
16301;DHT22;8258;51.020;4.248;2023-04-06T13:36:50;8.60;99.90
16301;DHT22;8258;51.020;4.248;2023-04-06T13:39:17;8.70;99.90
16301;DHT22;8258;51.020;4.248;2023-04-06T13:41:44;8.70;99.90
16301;DHT22;8258;51.020;4.248;2023-04-06T13:44:11;8.70;99.90
16301;DHT22;8258;51.020;4.248;2023-04-06T13:46:40;8.70;99.90
16301;DHT22;8258;51.020;4.248;2023-04-06T13:49:07;8.70;99.90
16301;DHT22;8258;51.020;4.248;2023-04-06T13:51:33;8.70;99.90
16301;DHT22;8258;51.020;4.248;2023-04-06T13:54:00;8.60;99.90
16301;DHT22;8258;51.020;4.248;2023-04-06T13:56:27;8.70;99.90
16301;DHT22;8258;51.020;4.248;2023-04-06T13:58:55;8.70;99.90
16301;DHT22;8258;51.020;4.248;2023-04-06T14:01:22;8.70;99.90
16301;DHT22;8258;51.020;4.248;2023-04-06T14:03:53;8.70;99.90
16301;DHT22;8258;51.020;4.248;2023-04-06T14:06:20;8.70;99.90
16301;DHT22;8258;51.020;4.248;2023-04-06T14:08:47;8.70;99.90
16301;DHT22;8258;51.020;4.248;2023-04-06T14:11:14;8.70;99.90
16301;DHT22;8258;51.020;4.248;2023-04-06T14:13:41;8.70;99.90
16301;DHT22;8258;51.020;4.248;2023-04-06T14:16:08;8.70;99.90
16301;DHT22;8258;51.020;4.248;2023-04-06T14:18:36;8.80;99.90
16301;DHT22;8258;51.020;4.248;2023-04-06T14:21:05;8.80;99.90
16301;DHT22;8258;51.020;4.248;2023-04-06T14:23:32;8.90;99.90
16301;DHT22;8258;51.020;4.248;2023-04-06T14:26:03;8.80;99.90
16301;DHT22;8258;51.020;4.248;2023-04-06T14:28:31;8.80;99.90
16301;DHT22;8258;51.020;4.248;2023-04-06T14:30:59;8.90;99.90
16301;DHT22;8258;51.020;4.248;2023-04-06T14:33:26;8.90;99.90
16301;DHT22;8258;51.020;4.248;2023-04-06T14:35:53;8.90;99.90
16301;DHT22;8258;51.020;4.248;2023-04-06T14:38:21;8.90;99.90
16301;DHT22;8258;51.020;4.248;2023-04-06T14:40:48;8.90;99.90
16301;DHT22;8258;51.020;4.248;2023-04-06T14:43:16;8.90;99.90
16301;DHT22;8258;51.020;4.248;2023-04-06T14:45:43;8.90;99.90
16301;DHT22;8258;51.020;4.248;2023-04-06T14:48:10;9.00;99.90
16301;DHT22;8258;51.020;4.248;2023-04-06T14:50:38;9.00;99.90
16301;DHT22;8258;51.020;4.248;2023-04-06T14:53:05;9.10;99.90
16301;DHT22;8258;51.020;4.248;2023-04-06T14:55:38;9.10;99.90
16301;DHT22;8258;51.020;4.248;2023-04-06T14:58:06;9.10;99.90
16301;DHT22;8258;51.020;4.248;2023-04-06T15:00:33;9.20;99.90
16301;DHT22;8258;51.020;4.248;2023-04-06T15:03:00;9.20;99.90
16301;DHT22;8258;51.020;4.248;2023-04-06T15:05:27;9.30;99.90
16301;DHT22;8258;51.020;4.248;2023-04-06T15:07:53;9.30;99.90
16301;DHT22;8258;51.020;4.248;2023-04-06T15:10:20;9.30;99.90
16301;DHT22;8258;51.020;4.248;2023-04-06T15:12:49;9.30;99.90
16301;DHT22;8258;51.020;4.248;2023-04-06T15:15:16;9.30;99.90
16301;DHT22;8258;51.020;4.248;2023-04-06T15:17:43;9.40;99.90
16301;DHT22;8258;51.020;4.248;2023-04-06T15:20:10;9.40;99.90
16301;DHT22;8258;51.020;4.248;2023-04-06T15:22:37;9.50;99.90
16301;DHT22;8258;51.020;4.248;2023-04-06T15:25:05;9.60;99.90
16301;DHT22;8258;51.020;4.248;2023-04-06T15:27:32;9.70;99.90
16301;DHT22;8258;51.020;4.248;2023-04-06T15:30:00;9.70;99.90
16301;DHT22;8258;51.020;4.248;2023-04-06T15:32:27;9.80;99.90
16301;DHT22;8258;51.020;4.248;2023-04-06T15:34:56;9.80;99.90
16301;DHT22;8258;51.020;4.248;2023-04-06T15:37:23;9.90;99.90
16301;DHT22;8258;51.020;4.248;2023-04-06T15:39:50;9.90;99.90
16301;DHT22;8258;51.020;4.248;2023-04-06T15:42:17;10.00;99.90
16301;DHT22;8258;51.020;4.248;2023-04-06T15:44:43;10.10;99.90
16301;DHT22;8258;51.020;4.248;2023-04-06T15:47:12;10.10;99.90
16301;DHT22;8258;51.020;4.248;2023-04-06T15:49:39;10.20;99.90
16301;DHT22;8258;51.020;4.248;2023-04-06T15:52:06;10.20;99.90
16301;DHT22;8258;51.020;4.248;2023-04-06T15:54:33;10.10;99.90
16301;DHT22;8258;51.020;4.248;2023-04-06T15:57:01;10.10;99.90
16301;DHT22;8258;51.020;4.248;2023-04-06T15:59:28;10.10;99.90
16301;DHT22;8258;51.020;4.248;2023-04-06T16:01:55;10.10;99.90
16301;DHT22;8258;51.020;4.248;2023-04-06T16:04:23;10.10;99.90